createdAt,value
2017-11-07T00:01:57.581Z,13.07
2017-11-07T00:04:26.646Z,12.30
2017-11-07T00:06:54.997Z,11.77
2017-11-07T00:09:23.290Z,11.00
2017-11-07T00:11:51.612Z,13.03
2017-11-07T00:14:19.899Z,12.77
2017-11-07T00:16:48.228Z,11.57
2017-11-07T00:19:16.483Z,11.53
2017-11-07T00:21:44.748Z,13.43
2017-11-07T00:24:13.812Z,14.67
2017-11-07T00:26:42.097Z,12.80
2017-11-07T00:29:10.376Z,12.57
2017-11-07T00:31:38.669Z,12.23
2017-11-07T00:34:07.714Z,11.20
2017-11-07T00:36:35.983Z,11.97
2017-11-07T00:39:04.251Z,9.80
2017-11-07T00:41:32.507Z,11.10
2017-11-07T00:44:01.562Z,10.80
2017-11-07T00:46:29.830Z,11.67
2017-11-07T00:48:58.120Z,10.23
2017-11-07T00:51:26.389Z,10.67
2017-11-07T00:53:54.651Z,10.40
2017-11-07T00:56:22.937Z,11.03
2017-11-07T00:58:51.205Z,10.20
2017-11-07T01:01:19.503Z,10.57
2017-11-07T01:03:47.777Z,11.43
2017-11-07T01:06:16.059Z,11.67
2017-11-07T01:08:44.346Z,10.87
2017-11-07T01:11:12.614Z,11.57
2017-11-07T01:13:40.888Z,9.73
2017-11-07T01:16:09.160Z,11.07
2017-11-07T01:18:37.427Z,10.07
2017-11-07T01:21:05.724Z,10.40
2017-11-07T01:23:33.979Z,10.43
2017-11-07T01:26:02.288Z,10.57
2017-11-07T01:28:31.384Z,11.10
2017-11-07T01:30:59.664Z,9.77
2017-11-07T01:33:27.976Z,10.20
2017-11-07T01:35:57.070Z,10.53
2017-11-07T01:38:26.105Z,9.63
2017-11-07T01:40:54.376Z,9.93
2017-11-07T01:43:22.651Z,11.13
2017-11-07T01:45:50.939Z,9.90
2017-11-07T01:48:19.206Z,9.73
2017-11-07T01:50:47.514Z,9.63
2017-11-07T01:53:15.840Z,10.60
2017-11-07T01:55:44.887Z,9.10
2017-11-07T01:58:13.237Z,9.80
2017-11-07T02:00:41.618Z,11.13
2017-11-07T02:03:09.943Z,10.83
2017-11-07T02:05:38.275Z,10.30
2017-11-07T02:08:07.326Z,8.90
2017-11-07T02:10:35.705Z,9.57
2017-11-07T02:13:04.058Z,9.67
2017-11-07T02:15:32.342Z,10.60
2017-11-07T02:18:00.949Z,8.47
2017-11-07T02:20:29.333Z,10.00
2017-11-07T02:22:57.647Z,10.03
2017-11-07T02:25:25.990Z,10.60
2017-11-07T02:27:54.381Z,9.00
2017-11-07T02:30:23.506Z,9.70
2017-11-07T02:32:51.789Z,8.87
2017-11-07T02:35:20.123Z,10.23
2017-11-07T02:37:48.452Z,9.53
2017-11-07T02:40:16.921Z,9.57
2017-11-07T02:42:45.328Z,10.10
2017-11-07T02:45:13.691Z,9.10
2017-11-07T02:47:42.129Z,9.57
2017-11-07T02:50:10.597Z,9.57
2017-11-07T02:52:39.036Z,9.50
2017-11-07T02:55:07.472Z,9.40
2017-11-07T02:57:36.647Z,8.40
2017-11-07T03:00:05.048Z,9.40
2017-11-07T03:02:33.607Z,9.30
2017-11-07T03:05:01.958Z,8.83
2017-11-07T03:07:30.291Z,8.47
2017-11-07T03:09:58.773Z,8.47
2017-11-07T03:12:27.066Z,8.53
2017-11-07T03:14:56.166Z,8.87
2017-11-07T03:17:25.360Z,9.10
2017-11-07T03:19:54.409Z,10.13
2017-11-07T03:22:22.838Z,8.40
2017-11-07T03:24:51.139Z,9.17
2017-11-07T03:27:19.481Z,9.73
2017-11-07T03:29:47.917Z,8.63
2017-11-07T03:32:16.200Z,8.50
2017-11-07T03:34:44.607Z,8.48
2017-11-07T03:37:13.274Z,7.80
2017-11-07T03:39:41.555Z,8.63
2017-11-07T03:42:09.900Z,8.10
2017-11-07T03:44:38.198Z,9.48
2017-11-07T03:47:06.504Z,8.52
2017-11-07T03:49:34.793Z,7.60
2017-11-07T03:52:03.081Z,9.02
2017-11-07T03:54:31.393Z,8.70
2017-11-07T03:56:59.730Z,8.10
2017-11-07T03:59:28.027Z,9.02
2017-11-07T04:01:56.315Z,8.50
2017-11-07T04:04:25.454Z,9.43
2017-11-07T04:06:54.146Z,8.93
2017-11-07T04:09:22.452Z,7.50
2017-11-07T04:11:51.069Z,8.07
2017-11-07T04:14:19.336Z,9.00
2017-11-07T04:16:48.431Z,8.00
2017-11-07T04:19:17.528Z,8.47
2017-11-07T04:21:46.268Z,8.53
2017-11-07T04:24:15.221Z,6.97
2017-11-07T04:26:43.502Z,7.30
2017-11-07T04:29:11.776Z,7.53
2017-11-07T04:31:40.858Z,7.57
2017-11-07T04:34:10.317Z,7.62
2017-11-07T04:36:38.685Z,7.28
2017-11-07T04:39:06.976Z,7.43
2017-11-07T04:41:35.247Z,7.37
2017-11-07T04:44:03.544Z,7.10
2017-11-07T04:46:32.087Z,8.40
2017-11-07T04:49:00.356Z,7.40
2017-11-07T04:51:29.389Z,7.50
2017-11-07T04:53:57.674Z,8.25
2017-11-07T04:56:25.929Z,8.00
2017-11-07T04:58:54.236Z,7.37
2017-11-07T05:01:22.518Z,8.30
2017-11-07T05:03:50.861Z,7.00
2017-11-07T05:06:19.187Z,7.37
2017-11-07T05:08:47.478Z,7.97
2017-11-07T05:11:16.148Z,7.30
2017-11-07T05:13:44.500Z,7.43
2017-11-07T05:16:12.826Z,7.60
2017-11-07T05:18:41.887Z,7.25
2017-11-07T05:21:10.147Z,7.07
2017-11-07T05:23:38.449Z,7.35
2017-11-07T05:26:06.721Z,6.97
2017-11-07T05:28:35.578Z,7.47
2017-11-07T05:31:03.859Z,6.45
2017-11-07T05:33:33.020Z,6.93
2017-11-07T05:36:02.074Z,7.70
2017-11-07T05:38:30.354Z,8.15
2017-11-07T05:40:58.626Z,8.07
2017-11-07T05:43:27.423Z,7.80
2017-11-07T05:45:55.714Z,7.90
2017-11-07T05:48:24.910Z,8.75
2017-11-07T05:50:53.181Z,8.20
2017-11-07T05:53:21.489Z,7.12
2017-11-07T05:55:49.821Z,7.15
2017-11-07T05:58:18.125Z,7.20
2017-11-07T06:00:46.407Z,7.05
2017-11-07T06:03:14.724Z,8.48
2017-11-07T06:05:43.020Z,8.02
2017-11-07T06:08:11.305Z,6.90
2017-11-07T06:10:39.604Z,7.82
2017-11-07T06:13:08.306Z,7.95
2017-11-07T06:15:36.583Z,7.00
2017-11-07T06:18:04.877Z,7.00
2017-11-07T06:20:33.174Z,6.97
2017-11-07T06:23:02.216Z,6.65
2017-11-07T06:25:30.536Z,7.70
2017-11-07T06:27:59.567Z,7.00
2017-11-07T06:30:27.887Z,7.97
2017-11-07T06:32:56.175Z,6.78
2017-11-07T06:35:24.557Z,6.68
2017-11-07T06:37:53.808Z,7.40
2017-11-07T06:40:22.113Z,7.22
2017-11-07T06:42:50.378Z,7.62
2017-11-07T06:45:18.715Z,7.78
2017-11-07T06:47:47.823Z,7.30
2017-11-07T06:50:16.566Z,7.78
2017-11-07T06:52:46.091Z,11.03
2017-11-07T06:55:15.192Z,8.30
2017-11-07T06:57:43.567Z,6.95
2017-11-07T07:00:11.942Z,7.90
2017-11-07T07:02:40.536Z,7.78
2017-11-07T07:05:09.687Z,8.40
2017-11-07T07:07:38.009Z,7.15
2017-11-07T07:10:06.350Z,8.10
2017-11-07T07:12:34.654Z,8.27
2017-11-07T07:15:03.013Z,8.60
2017-11-07T07:17:31.511Z,7.40
2017-11-07T07:19:59.849Z,7.43
2017-11-07T07:22:28.262Z,8.23
2017-11-07T07:24:56.661Z,9.30
2017-11-07T07:27:25.341Z,7.33
2017-11-07T07:29:53.729Z,7.60
2017-11-07T07:32:22.013Z,7.47
2017-11-07T07:34:50.472Z,8.13
2017-11-07T07:37:18.780Z,8.00
2017-11-07T07:39:47.820Z,8.73
2017-11-07T07:42:16.541Z,7.10
2017-11-07T07:44:44.798Z,7.80
2017-11-07T07:47:13.068Z,8.57
2017-11-07T07:49:41.366Z,9.77
2017-11-07T07:52:09.652Z,12.10
2017-11-07T07:54:38.419Z,11.90
2017-11-07T07:57:06.672Z,9.50
2017-11-07T07:59:35.371Z,12.23
2017-11-07T08:02:03.662Z,9.57
2017-11-07T08:04:32.451Z,10.20
2017-11-07T08:07:00.719Z,9.27
2017-11-07T08:09:29.127Z,9.80
2017-11-07T08:11:57.446Z,8.97
2017-11-07T08:14:26.915Z,9.10
2017-11-07T08:16:55.218Z,8.73
2017-11-07T08:19:24.277Z,10.30
2017-11-07T08:21:52.548Z,9.40
2017-11-07T08:24:20.859Z,11.43
2017-11-07T08:26:49.166Z,12.17
2017-11-07T08:29:17.459Z,10.30
2017-11-07T08:31:45.744Z,39.00
2017-11-07T08:34:14.011Z,11.53
2017-11-07T08:36:42.702Z,11.10
2017-11-07T08:39:10.964Z,16.90
2017-11-07T08:41:39.234Z,9.40
2017-11-07T08:44:08.288Z,10.70
2017-11-07T08:46:36.564Z,12.97
2017-11-07T08:49:04.826Z,19.00
2017-11-07T08:51:33.119Z,15.27
2017-11-07T08:54:01.429Z,12.20
2017-11-07T08:56:30.470Z,9.73
2017-11-07T08:58:58.763Z,10.40
2017-11-07T09:01:27.021Z,13.20
2017-11-07T09:03:55.309Z,8.23
2017-11-07T09:06:23.572Z,9.97
2017-11-07T09:08:51.832Z,9.70
2017-11-07T09:11:20.108Z,9.20
2017-11-07T09:13:48.381Z,8.07
2017-11-07T09:16:17.404Z,8.13
2017-11-07T09:18:45.677Z,7.67
2017-11-07T09:21:13.949Z,8.10
2017-11-07T09:23:42.207Z,8.07
2017-11-07T09:26:11.267Z,8.60
2017-11-07T09:28:39.532Z,8.10
2017-11-07T09:31:07.809Z,6.70
2017-11-07T09:33:36.060Z,8.43
2017-11-07T09:36:04.319Z,8.20
2017-11-07T09:38:33.576Z,7.93
2017-11-07T09:41:01.842Z,8.20
2017-11-07T09:43:30.116Z,8.70
2017-11-07T09:45:58.406Z,8.17
2017-11-07T09:48:28.182Z,7.40
2017-11-07T09:50:56.483Z,7.83
2017-11-07T09:53:24.742Z,8.20
2017-11-07T09:55:52.999Z,8.40
2017-11-07T09:58:21.285Z,9.70
2017-11-07T10:00:49.552Z,9.27
2017-11-07T10:03:17.810Z,8.07
2017-11-07T10:05:46.854Z,8.17
2017-11-07T10:08:15.117Z,7.87
2017-11-07T10:10:43.395Z,9.03
2017-11-07T10:13:11.682Z,8.57
2017-11-07T10:15:39.946Z,7.60
2017-11-07T10:18:08.240Z,9.17
2017-11-07T10:20:36.529Z,8.47
2017-11-07T10:23:04.801Z,7.40
2017-11-07T10:25:33.084Z,8.00
2017-11-07T10:28:01.358Z,8.77
2017-11-07T10:30:29.651Z,8.90
2017-11-07T10:32:58.218Z,7.90
2017-11-07T10:35:26.482Z,9.07
2017-11-07T10:37:54.818Z,8.10
2017-11-07T10:40:23.107Z,8.57
2017-11-07T10:42:51.384Z,8.90
2017-11-07T10:45:19.667Z,9.00
2017-11-07T10:47:48.701Z,8.53
2017-11-07T10:50:16.967Z,8.03
2017-11-07T10:52:45.673Z,8.40
2017-11-07T10:55:13.935Z,8.63
2017-11-07T10:57:42.213Z,9.13
2017-11-07T11:00:10.497Z,8.80
2017-11-07T11:02:38.975Z,8.47
2017-11-07T11:05:07.260Z,8.60
2017-11-07T11:07:36.267Z,8.47
2017-11-07T11:10:04.982Z,17.03
2017-11-07T11:12:33.281Z,10.40
2017-11-07T11:15:02.051Z,9.37
2017-11-07T11:17:30.298Z,8.80
2017-11-07T11:19:58.613Z,9.03
2017-11-07T11:22:26.878Z,8.87
2017-11-07T11:24:55.169Z,7.60
2017-11-07T11:27:23.422Z,8.40
2017-11-07T11:29:51.689Z,9.40
2017-11-07T11:32:20.355Z,8.53
2017-11-07T11:34:48.615Z,7.97
2017-11-07T11:37:16.887Z,8.97
2017-11-07T11:39:45.161Z,9.87
2017-11-07T11:42:13.428Z,9.10
2017-11-07T11:44:41.711Z,8.13
2017-11-07T11:47:10.740Z,8.30
2017-11-07T11:49:39.024Z,8.87
2017-11-07T11:52:07.267Z,9.60
2017-11-07T11:54:35.656Z,9.07
2017-11-07T11:57:03.908Z,9.40
2017-11-07T11:59:32.986Z,9.53
2017-11-07T12:02:01.345Z,8.03
2017-11-07T12:04:29.654Z,8.47
2017-11-07T12:06:58.271Z,9.27
2017-11-07T12:09:26.998Z,7.50
2017-11-07T12:11:55.251Z,8.13
2017-11-07T12:14:23.530Z,7.67
2017-11-07T12:16:51.818Z,8.97
2017-11-07T12:19:20.089Z,9.17
2017-11-07T12:21:48.368Z,8.13
2017-11-07T12:24:16.637Z,9.93
2017-11-07T12:26:45.341Z,8.90
2017-11-07T12:29:13.596Z,8.60
2017-11-07T12:31:43.113Z,12.67
2017-11-07T12:34:11.376Z,8.50
2017-11-07T12:36:39.644Z,8.47
2017-11-07T12:39:07.930Z,9.53
2017-11-07T12:41:36.250Z,9.03
2017-11-07T12:44:04.929Z,9.20
2017-11-07T12:46:33.601Z,8.50
2017-11-07T12:49:01.894Z,9.60
2017-11-07T12:51:58.674Z,8.87
2017-11-07T12:54:26.948Z,9.30
2017-11-07T12:56:55.216Z,9.50
2017-11-07T12:59:23.492Z,9.40
2017-11-07T13:01:52.130Z,8.47
2017-11-07T13:04:20.380Z,8.47
2017-11-07T13:06:48.655Z,8.70
2017-11-07T13:09:16.925Z,9.93
2017-11-07T13:11:45.206Z,9.70
2017-11-07T13:14:14.646Z,8.70
2017-11-07T13:16:43.272Z,10.37
2017-11-07T13:19:12.347Z,9.20
2017-11-07T13:21:40.637Z,9.87
2017-11-07T13:24:08.907Z,9.97
2017-11-07T13:26:37.179Z,9.07
2017-11-07T13:29:05.452Z,8.83
2017-11-07T13:31:33.709Z,10.00
2017-11-07T13:34:01.993Z,8.80
2017-11-07T13:36:30.267Z,9.70
2017-11-07T13:38:58.537Z,10.17
2017-11-07T13:41:27.436Z,8.77
2017-11-07T13:43:55.704Z,8.50
2017-11-07T13:46:24.001Z,9.60
2017-11-07T13:48:52.302Z,10.03
2017-11-07T13:51:20.966Z,8.67
2017-11-07T13:53:49.298Z,9.37
2017-11-07T13:56:17.553Z,9.20
2017-11-07T13:58:45.879Z,8.37
2017-11-07T14:01:14.967Z,7.97
2017-11-07T14:03:45.303Z,8.47
2017-11-07T14:06:13.576Z,9.10
2017-11-07T14:08:42.618Z,10.13
2017-11-07T14:11:10.887Z,8.93
2017-11-07T14:13:39.148Z,9.33
2017-11-07T14:16:07.415Z,10.27
2017-11-07T14:18:35.709Z,11.17
2017-11-07T14:21:03.967Z,9.50
2017-11-07T14:23:32.250Z,10.00
2017-11-07T14:26:00.509Z,9.23
2017-11-07T14:28:29.646Z,10.60
2017-11-07T14:30:57.918Z,10.03
2017-11-07T14:33:26.189Z,9.10
2017-11-07T14:35:54.466Z,10.20
2017-11-07T14:38:22.841Z,9.60
2017-11-07T14:40:51.142Z,10.27
2017-11-07T14:43:19.435Z,10.13
2017-11-07T14:45:47.697Z,9.47
2017-11-07T14:48:16.006Z,10.17
2017-11-07T14:50:44.268Z,11.00
2017-11-07T14:53:12.548Z,9.80
2017-11-07T14:55:40.821Z,10.00
2017-11-07T14:58:09.872Z,10.20
2017-11-07T15:00:38.151Z,9.53
2017-11-07T15:03:07.182Z,10.00
2017-11-07T15:05:35.473Z,11.30
2017-11-07T15:08:04.150Z,11.43
2017-11-07T15:10:32.430Z,11.20
2017-11-07T15:13:00.708Z,11.13
2017-11-07T15:15:28.988Z,10.90
2017-11-07T15:17:57.405Z,11.87
2017-11-07T15:20:25.713Z,10.70
2017-11-07T15:22:53.990Z,11.40
2017-11-07T15:25:22.345Z,11.90
2017-11-07T15:27:50.612Z,10.83
2017-11-07T15:30:18.906Z,11.50
2017-11-07T15:32:47.641Z,11.47
2017-11-07T15:35:15.942Z,11.60
2017-11-07T15:37:44.199Z,11.13
2017-11-07T15:40:12.465Z,11.60
2017-11-07T15:42:40.766Z,9.90
2017-11-07T15:45:09.041Z,11.07
2017-11-07T15:47:37.572Z,11.33
2017-11-07T15:50:06.587Z,10.97
2017-11-07T15:52:34.876Z,12.07
2017-11-07T15:55:03.161Z,10.60
2017-11-07T15:59:33.707Z,12.10
2017-11-07T16:02:01.976Z,12.20
2017-11-07T16:04:30.243Z,11.37
2017-11-07T16:06:58.512Z,14.32
2017-11-07T16:09:26.781Z,12.83
2017-11-07T16:11:55.063Z,10.87
2017-11-07T16:14:24.099Z,12.93
2017-11-07T16:16:52.393Z,11.80
2017-11-07T16:19:21.065Z,12.30
2017-11-07T16:21:49.323Z,13.83
2017-11-07T16:24:17.637Z,11.00
2017-11-07T16:26:47.422Z,11.37
2017-11-07T16:29:15.692Z,12.20
2017-11-07T16:31:43.985Z,11.43
2017-11-07T16:34:12.255Z,12.83
2017-11-07T16:36:40.537Z,13.30
2017-11-07T16:39:08.789Z,12.90
2017-11-07T16:41:37.085Z,12.67
2017-11-07T16:44:05.359Z,12.27
2017-11-07T16:46:33.631Z,12.37
2017-11-07T16:49:01.910Z,12.70
2017-11-07T16:51:30.186Z,12.23
2017-11-07T16:53:58.466Z,12.17
2017-11-07T16:56:26.743Z,12.50
2017-11-07T16:58:55.463Z,13.83
2017-11-07T17:01:24.459Z,12.93
2017-11-07T17:03:53.124Z,13.00
2017-11-07T17:06:21.834Z,12.27
2017-11-07T17:08:50.224Z,13.00
2017-11-07T17:11:18.500Z,12.90
2017-11-07T17:13:46.825Z,12.73
2017-11-07T17:16:15.091Z,12.53
2017-11-07T17:18:44.156Z,12.03
2017-11-07T17:21:12.453Z,12.97
2017-11-07T17:23:40.858Z,12.03
2017-11-07T17:26:09.190Z,11.50
2017-11-07T17:28:37.463Z,12.97
2017-11-07T17:31:05.728Z,13.13
2017-11-07T17:33:34.020Z,12.67
2017-11-07T17:36:02.324Z,13.07
2017-11-07T17:38:31.073Z,11.67
2017-11-07T17:40:59.341Z,13.00
2017-11-07T17:43:27.611Z,12.20
2017-11-07T17:45:55.903Z,13.53
2017-11-07T17:48:24.195Z,12.53
2017-11-07T17:50:54.032Z,12.80
2017-11-07T17:53:23.191Z,12.50
2017-11-07T17:55:51.486Z,13.93
2017-11-07T17:58:19.756Z,13.63
2017-11-07T18:00:48.892Z,13.27
2017-11-07T18:03:17.179Z,13.83
2017-11-07T18:05:46.228Z,12.90
2017-11-07T18:08:15.525Z,13.50
2017-11-07T18:10:43.808Z,13.70
2017-11-07T18:13:12.072Z,14.23
2017-11-07T18:15:40.343Z,14.30
2017-11-07T18:18:08.634Z,15.40
2017-11-07T18:20:37.855Z,13.10
2017-11-07T18:23:06.921Z,14.30
2017-11-07T18:25:35.206Z,15.70
2017-11-07T18:28:03.889Z,14.23
2017-11-07T18:30:32.289Z,13.77
2017-11-07T18:33:00.896Z,13.93
2017-11-07T18:35:29.434Z,13.93
2017-11-07T18:37:57.706Z,13.70
2017-11-07T18:40:26.064Z,14.80
2017-11-07T18:42:54.361Z,14.90
2017-11-07T18:45:22.636Z,14.93
2017-11-07T18:47:53.373Z,13.50
2017-11-07T18:50:21.669Z,15.53
2017-11-07T18:52:50.787Z,14.50
2017-11-07T18:55:19.121Z,14.73
2017-11-07T18:57:49.033Z,14.80
2017-11-07T19:00:17.304Z,16.43
2017-11-07T19:02:47.910Z,20.70
2017-11-07T19:05:16.211Z,15.20
2017-11-07T19:07:45.264Z,13.20
2017-11-07T19:10:14.184Z,14.23
2017-11-07T19:12:43.349Z,13.83
2017-11-07T19:15:11.701Z,13.53
2017-11-07T19:17:40.406Z,13.47
2017-11-07T19:20:08.687Z,13.20
2017-11-07T19:22:36.963Z,13.90
2017-11-07T19:25:05.317Z,14.70
2017-11-07T19:27:33.610Z,14.97
2017-11-07T19:30:02.610Z,15.63
2017-11-07T19:32:30.930Z,13.53
2017-11-07T19:34:59.234Z,14.93
2017-11-07T19:37:28.679Z,13.23
2017-11-07T19:39:56.936Z,14.80
2017-11-07T20:00:30.266Z,13.50
2017-11-07T20:21:05.219Z,14.37
2017-11-07T20:41:38.337Z,13.70
2017-11-07T21:48:23.066Z,14.03
2017-11-07T22:09:02.333Z,16.10
2017-11-07T22:29:39.750Z,15.23
2017-11-07T22:50:15.943Z,15.77
2017-11-07T23:10:51.220Z,13.80
2017-11-07T23:31:25.277Z,14.20
2017-11-07T23:51:58.829Z,13.97
